sensor_id;sensor_type;location;lat;lon;timestamp;pressure;altitude;pressure_sealevel;temperature;humidity
57801;BME280;43627;42.728;23.256;2023-02-13T00:00:18;96722.44;;;-1.61;100.00
57801;BME280;43627;42.728;23.256;2023-02-13T00:02:45;96737.84;;;-1.58;100.00
57801;BME280;43627;42.728;23.256;2023-02-13T00:05:12;96727.13;;;-1.58;100.00
57801;BME280;43627;42.728;23.256;2023-02-13T00:07:39;96718.56;;;-1.64;100.00
57801;BME280;43627;42.728;23.256;2023-02-13T00:10:06;96631.97;;;-2.27;100.00
57801;BME280;43627;42.728;23.256;2023-02-13T00:12:33;96730.34;;;-1.53;100.00
57801;BME280;43627;42.728;23.256;2023-02-13T00:15:00;96732.34;;;-1.50;100.00
57801;BME280;43627;42.728;23.256;2023-02-13T00:17:26;96704.53;;;-1.61;100.00
57801;BME280;43627;42.728;23.256;2023-02-13T00:19:53;96708.94;;;-1.53;100.00
57801;BME280;43627;42.728;23.256;2023-02-13T00:22:20;96731.56;;;-1.22;100.00
57801;BME280;43627;42.728;23.256;2023-02-13T00:24:46;96729.75;;;-1.18;100.00
57801;BME280;43627;42.728;23.256;2023-02-13T00:27:13;96704.22;;;-1.44;100.00
57801;BME280;43627;42.728;23.256;2023-02-13T00:29:40;96697.16;;;-1.36;100.00
57801;BME280;43627;42.728;23.256;2023-02-13T00:32:07;96730.38;;;-1.09;100.00
57801;BME280;43627;42.728;23.256;2023-02-13T00:34:34;96727.91;;;-1.30;100.00
57801;BME280;43627;42.728;23.256;2023-02-13T00:37:01;96738.91;;;-1.19;100.00
57801;BME280;43627;42.728;23.256;2023-02-13T00:39:27;96740.50;;;-1.02;100.00
57801;BME280;43627;42.728;23.256;2023-02-13T00:41:54;96737.44;;;-1.17;100.00
57801;BME280;43627;42.728;23.256;2023-02-13T00:44:21;96723.22;;;-1.33;100.00
57801;BME280;43627;42.728;23.256;2023-02-13T00:46:47;96710.50;;;-1.52;100.00
57801;BME280;43627;42.728;23.256;2023-02-13T00:49:14;96734.28;;;-1.34;100.00
57801;BME280;43627;42.728;23.256;2023-02-13T00:51:40;96731.31;;;-1.45;100.00
57801;BME280;43627;42.728;23.256;2023-02-13T00:54:07;96743.19;;;-1.30;100.00
57801;BME280;43627;42.728;23.256;2023-02-13T00:56:34;96756.88;;;-1.20;100.00
57801;BME280;43627;42.728;23.256;2023-02-13T00:59:00;96725.19;;;-1.46;100.00
57801;BME280;43627;42.728;23.256;2023-02-13T01:01:27;96744.63;;;-1.33;100.00
57801;BME280;43627;42.728;23.256;2023-02-13T01:03:54;96752.56;;;-1.36;100.00
57801;BME280;43627;42.728;23.256;2023-02-13T01:06:21;96758.13;;;-1.29;100.00
57801;BME280;43627;42.728;23.256;2023-02-13T01:08:47;96752.84;;;-1.41;100.00
57801;BME280;43627;42.728;23.256;2023-02-13T01:11:14;96734.13;;;-1.54;100.00
57801;BME280;43627;42.728;23.256;2023-02-13T01:13:41;96666.22;;;-2.05;100.00
57801;BME280;43627;42.728;23.256;2023-02-13T01:16:07;96745.38;;;-1.48;100.00
57801;BME280;43627;42.728;23.256;2023-02-13T01:18:34;96723.56;;;-1.62;100.00
57801;BME280;43627;42.728;23.256;2023-02-13T01:21:04;96722.94;;;-1.72;100.00
57801;BME280;43627;42.728;23.256;2023-02-13T01:23:36;96738.84;;;-1.63;100.00
57801;BME280;43627;42.728;23.256;2023-02-13T01:26:04;96758.31;;;-1.50;100.00
57801;BME280;43627;42.728;23.256;2023-02-13T01:28:32;96758.13;;;-1.57;100.00
57801;BME280;43627;42.728;23.256;2023-02-13T01:30:59;96742.13;;;-1.69;100.00
57801;BME280;43627;42.728;23.256;2023-02-13T01:33:27;96768.81;;;-1.57;100.00
57801;BME280;43627;42.728;23.256;2023-02-13T01:35:54;96764.34;;;-1.53;100.00
57801;BME280;43627;42.728;23.256;2023-02-13T01:38:21;96761.09;;;-1.47;100.00
57801;BME280;43627;42.728;23.256;2023-02-13T01:40:50;96764.88;;;-1.48;100.00
57801;BME280;43627;42.728;23.256;2023-02-13T01:43:17;96757.69;;;-1.31;100.00
57801;BME280;43627;42.728;23.256;2023-02-13T01:45:46;96761.44;;;-1.20;100.00
57801;BME280;43627;42.728;23.256;2023-02-13T01:48:18;96772.84;;;-1.07;100.00
57801;BME280;43627;42.728;23.256;2023-02-13T01:50:57;96757.81;;;-0.84;100.00
57801;BME280;43627;42.728;23.256;2023-02-13T01:53:42;96762.47;;;-0.81;100.00
57801;BME280;43627;42.728;23.256;2023-02-13T01:58:52;96769.31;;;-1.11;100.00
57801;BME280;43627;42.728;23.256;2023-02-13T02:01:20;96773.63;;;-1.23;100.00
57801;BME280;43627;42.728;23.256;2023-02-13T02:04:27;96734.09;;;-1.41;100.00
57801;BME280;43627;42.728;23.256;2023-02-13T02:06:49;96749.91;;;-1.36;100.00
57801;BME280;43627;42.728;23.256;2023-02-13T02:09:22;96770.81;;;-1.26;100.00
57801;BME280;43627;42.728;23.256;2023-02-13T02:12:00;96734.25;;;-1.50;100.00
57801;BME280;43627;42.728;23.256;2023-02-13T02:14:28;96750.94;;;-1.41;100.00
57801;BME280;43627;42.728;23.256;2023-02-13T02:16:56;96742.75;;;-1.60;100.00
57801;BME280;43627;42.728;23.256;2023-02-13T02:36:02;96776.53;;;-1.68;100.00
57801;BME280;43627;42.728;23.256;2023-02-13T02:39:02;96774.22;;;-1.69;100.00
57801;BME280;43627;42.728;23.256;2023-02-13T02:41:49;96770.41;;;-1.68;100.00
57801;BME280;43627;42.728;23.256;2023-02-13T02:44:42;96782.75;;;-1.64;100.00
57801;BME280;43627;42.728;23.256;2023-02-13T02:47:25;96786.69;;;-1.74;100.00
57801;BME280;43627;42.728;23.256;2023-02-13T03:01:22;96771.81;;;-2.23;100.00
57801;BME280;43627;42.728;23.256;2023-02-13T03:04:25;96779.72;;;-2.15;100.00
57801;BME280;43627;42.728;23.256;2023-02-13T03:07:16;96789.84;;;-2.33;100.00
57801;BME280;43627;42.728;23.256;2023-02-13T03:09:48;96792.63;;;-2.29;100.00
57801;BME280;43627;42.728;23.256;2023-02-13T03:12:43;96751.09;;;-2.51;100.00
57801;BME280;43627;42.728;23.256;2023-02-13T03:15:30;96780.47;;;-2.51;100.00
57801;BME280;43627;42.728;23.256;2023-02-13T03:17:58;96790.28;;;-2.43;100.00
57801;BME280;43627;42.728;23.256;2023-02-13T03:21:02;96762.56;;;-2.63;100.00
57801;BME280;43627;42.728;23.256;2023-02-13T03:24:09;96751.06;;;-2.75;100.00
57801;BME280;43627;42.728;23.256;2023-02-13T03:27:08;96761.22;;;-2.69;100.00
57801;BME280;43627;42.728;23.256;2023-02-13T03:32:44;96795.84;;;-2.48;100.00
57801;BME280;43627;42.728;23.256;2023-02-13T03:35:20;96799.19;;;-2.51;100.00
57801;BME280;43627;42.728;23.256;2023-02-13T03:38:15;96780.59;;;-2.47;100.00
57801;BME280;43627;42.728;23.256;2023-02-13T03:40:50;96771.78;;;-2.48;100.00
57801;BME280;43627;42.728;23.256;2023-02-13T03:44:05;96775.16;;;-2.51;100.00
57801;BME280;43627;42.728;23.256;2023-02-13T03:46:33;96777.56;;;-2.58;100.00
57801;BME280;43627;42.728;23.256;2023-02-13T03:49:03;96785.72;;;-2.42;100.00
57801;BME280;43627;42.728;23.256;2023-02-13T03:52:04;96795.84;;;-2.48;100.00
57801;BME280;43627;42.728;23.256;2023-02-13T03:54:45;96742.19;;;-2.67;100.00
57801;BME280;43627;42.728;23.256;2023-02-13T03:57:36;96778.47;;;-2.30;100.00
57801;BME280;43627;42.728;23.256;2023-02-13T04:00:26;96788.53;;;-2.26;100.00
57801;BME280;43627;42.728;23.256;2023-02-13T04:03:07;96777.59;;;-2.34;100.00
57801;BME280;43627;42.728;23.256;2023-02-13T04:05:40;96744.53;;;-2.66;100.00
57801;BME280;43627;42.728;23.256;2023-02-13T04:08:09;96789.63;;;-2.40;100.00
57801;BME280;43627;42.728;23.256;2023-02-13T04:10:50;96789.06;;;-2.21;100.00
57801;BME280;43627;42.728;23.256;2023-02-13T04:13:33;96798.19;;;-2.10;100.00
57801;BME280;43627;42.728;23.256;2023-02-13T04:16:20;96807.56;;;-2.04;100.00
57801;BME280;43627;42.728;23.256;2023-02-13T04:18:48;96754.56;;;-2.38;100.00
57801;BME280;43627;42.728;23.256;2023-02-13T04:21:17;96792.84;;;-2.10;100.00
57801;BME280;43627;42.728;23.256;2023-02-13T04:23:43;96798.09;;;-2.25;100.00
57801;BME280;43627;42.728;23.256;2023-02-13T04:26:15;96799.31;;;-2.23;100.00
57801;BME280;43627;42.728;23.256;2023-02-13T04:28:43;96804.56;;;-2.14;100.00
57801;BME280;43627;42.728;23.256;2023-02-13T04:31:10;96805.78;;;-2.24;100.00
57801;BME280;43627;42.728;23.256;2023-02-13T04:33:37;96785.16;;;-2.48;100.00
57801;BME280;43627;42.728;23.256;2023-02-13T04:36:04;96798.97;;;-2.34;100.00
57801;BME280;43627;42.728;23.256;2023-02-13T04:38:31;96805.00;;;-2.37;100.00
57801;BME280;43627;42.728;23.256;2023-02-13T04:40:58;96794.41;;;-2.45;100.00
57801;BME280;43627;42.728;23.256;2023-02-13T04:43:25;96798.19;;;-2.46;100.00
57801;BME280;43627;42.728;23.256;2023-02-13T04:45:52;96759.41;;;-2.77;100.00
57801;BME280;43627;42.728;23.256;2023-02-13T04:48:18;96756.53;;;-2.84;100.00
57801;BME280;43627;42.728;23.256;2023-02-13T04:50:45;96800.06;;;-2.59;100.00
57801;BME280;43627;42.728;23.256;2023-02-13T04:53:13;96782.72;;;-2.65;100.00
57801;BME280;43627;42.728;23.256;2023-02-13T04:55:40;96777.13;;;-2.72;100.00
57801;BME280;43627;42.728;23.256;2023-02-13T04:58:06;96809.44;;;-2.53;100.00
57801;BME280;43627;42.728;23.256;2023-02-13T05:00:33;96810.53;;;-2.42;100.00
57801;BME280;43627;42.728;23.256;2023-02-13T05:03:04;96818.56;;;-2.30;100.00
57801;BME280;43627;42.728;23.256;2023-02-13T05:05:32;96776.69;;;-2.62;100.00
57801;BME280;43627;42.728;23.256;2023-02-13T05:07:58;96781.34;;;-2.71;100.00
57801;BME280;43627;42.728;23.256;2023-02-13T05:10:25;96803.31;;;-2.53;100.00
57801;BME280;43627;42.728;23.256;2023-02-13T05:12:52;96804.97;;;-2.61;100.00
57801;BME280;43627;42.728;23.256;2023-02-13T05:15:19;96819.22;;;-2.45;100.00
57801;BME280;43627;42.728;23.256;2023-02-13T05:17:46;96830.94;;;-2.25;100.00
57801;BME280;43627;42.728;23.256;2023-02-13T05:20:13;96801.84;;;-2.39;100.00
57801;BME280;43627;42.728;23.256;2023-02-13T05:22:47;96815.25;;;-2.14;100.00
57801;BME280;43627;42.728;23.256;2023-02-13T05:25:33;96811.44;;;-2.13;100.00
57801;BME280;43627;42.728;23.256;2023-02-13T05:28:01;96838.38;;;-2.31;100.00
57801;BME280;43627;42.728;23.256;2023-02-13T05:30:28;96830.25;;;-2.34;100.00
57801;BME280;43627;42.728;23.256;2023-02-13T05:32:55;96832.25;;;-2.31;100.00
57801;BME280;43627;42.728;23.256;2023-02-13T05:35:22;96750.00;;;-3.20;100.00
57801;BME280;43627;42.728;23.256;2023-02-13T05:37:50;96807.59;;;-2.73;100.00
57801;BME280;43627;42.728;23.256;2023-02-13T05:40:17;96842.94;;;-2.19;100.00
57801;BME280;43627;42.728;23.256;2023-02-13T05:42:44;96787.66;;;-2.76;100.00
57801;BME280;43627;42.728;23.256;2023-02-13T05:45:10;96813.16;;;-2.66;100.00
57801;BME280;43627;42.728;23.256;2023-02-13T05:47:37;96850.75;;;-2.26;100.00
57801;BME280;43627;42.728;23.256;2023-02-13T05:50:04;96814.34;;;-2.43;100.00
57801;BME280;43627;42.728;23.256;2023-02-13T05:52:31;96837.72;;;-2.27;100.00
57801;BME280;43627;42.728;23.256;2023-02-13T05:55:00;96847.50;;;-2.32;100.00
57801;BME280;43627;42.728;23.256;2023-02-13T05:57:29;96784.22;;;-2.89;100.00
57801;BME280;43627;42.728;23.256;2023-02-13T05:59:57;96825.31;;;-2.56;100.00
57801;BME280;43627;42.728;23.256;2023-02-13T06:02:23;96851.81;;;-2.51;100.00
57801;BME280;43627;42.728;23.256;2023-02-13T06:04:50;96859.31;;;-2.45;100.00
57801;BME280;43627;42.728;23.256;2023-02-13T06:07:17;96854.38;;;-2.55;100.00
57801;BME280;43627;42.728;23.256;2023-02-13T06:09:43;96844.22;;;-2.62;100.00
57801;BME280;43627;42.728;23.256;2023-02-13T06:12:10;96859.63;;;-2.46;100.00
57801;BME280;43627;42.728;23.256;2023-02-13T06:14:36;96858.63;;;-2.30;100.00
57801;BME280;43627;42.728;23.256;2023-02-13T06:17:03;96845.84;;;-2.24;100.00
57801;BME280;43627;42.728;23.256;2023-02-13T06:19:30;96845.44;;;-1.89;100.00
57801;BME280;43627;42.728;23.256;2023-02-13T06:21:56;96808.31;;;-2.03;100.00
57801;BME280;43627;42.728;23.256;2023-02-13T06:24:23;96842.97;;;-1.94;100.00
57801;BME280;43627;42.728;23.256;2023-02-13T06:26:50;96861.66;;;-1.82;100.00
57801;BME280;43627;42.728;23.256;2023-02-13T06:29:16;96867.81;;;-1.69;100.00
57801;BME280;43627;42.728;23.256;2023-02-13T06:31:43;96865.91;;;-1.69;100.00
57801;BME280;43627;42.728;23.256;2023-02-13T06:34:10;96841.63;;;-1.76;100.00
57801;BME280;43627;42.728;23.256;2023-02-13T06:36:36;96846.97;;;-1.76;100.00
57801;BME280;43627;42.728;23.256;2023-02-13T06:39:04;96881.91;;;-1.45;100.00
57801;BME280;43627;42.728;23.256;2023-02-13T06:41:30;96880.50;;;-1.42;100.00
57801;BME280;43627;42.728;23.256;2023-02-13T06:43:57;96882.47;;;-1.39;100.00
57801;BME280;43627;42.728;23.256;2023-02-13T06:46:23;96887.25;;;-1.20;100.00
57801;BME280;43627;42.728;23.256;2023-02-13T06:48:50;96873.53;;;-1.31;100.00
57801;BME280;43627;42.728;23.256;2023-02-13T06:51:17;96852.03;;;-1.34;100.00
57801;BME280;43627;42.728;23.256;2023-02-13T06:53:44;96882.28;;;-1.06;100.00
57801;BME280;43627;42.728;23.256;2023-02-13T06:56:10;96879.03;;;-0.99;100.00
57801;BME280;43627;42.728;23.256;2023-02-13T06:58:37;96882.34;;;-0.90;100.00
57801;BME280;43627;42.728;23.256;2023-02-13T07:01:05;96881.44;;;-0.82;100.00
57801;BME280;43627;42.728;23.256;2023-02-13T07:03:32;96863.69;;;-0.87;100.00
57801;BME280;43627;42.728;23.256;2023-02-13T07:05:58;96889.19;;;-0.77;100.00
57801;BME280;43627;42.728;23.256;2023-02-13T07:08:25;96877.41;;;-0.88;100.00
57801;BME280;43627;42.728;23.256;2023-02-13T07:10:52;96863.53;;;-1.06;100.00
57801;BME280;43627;42.728;23.256;2023-02-13T07:13:18;96866.56;;;-1.07;100.00
57801;BME280;43627;42.728;23.256;2023-02-13T07:15:45;96876.06;;;-0.82;100.00
57801;BME280;43627;42.728;23.256;2023-02-13T07:18:12;96885.88;;;-0.58;100.00
57801;BME280;43627;42.728;23.256;2023-02-13T07:20:38;96897.63;;;-0.63;100.00
57801;BME280;43627;42.728;23.256;2023-02-13T07:23:05;96893.53;;;-0.44;100.00
57801;BME280;43627;42.728;23.256;2023-02-13T07:25:33;96901.16;;;-0.31;100.00
57801;BME280;43627;42.728;23.256;2023-02-13T07:28:01;96851.44;;;-0.44;100.00
57801;BME280;43627;42.728;23.256;2023-02-13T07:30:30;96875.16;;;-0.14;100.00
57801;BME280;43627;42.728;23.256;2023-02-13T07:33:00;96897.66;;;0.13;100.00
57801;BME280;43627;42.728;23.256;2023-02-13T07:35:27;96897.72;;;0.32;100.00
57801;BME280;43627;42.728;23.256;2023-02-13T07:37:54;96878.94;;;0.32;100.00
57801;BME280;43627;42.728;23.256;2023-02-13T07:40:21;96888.84;;;0.47;100.00
57801;BME280;43627;42.728;23.256;2023-02-13T07:42:48;96891.63;;;0.51;100.00
57801;BME280;43627;42.728;23.256;2023-02-13T07:45:15;96891.09;;;0.61;100.00
57801;BME280;43627;42.728;23.256;2023-02-13T07:47:42;96869.63;;;0.61;100.00
57801;BME280;43627;42.728;23.256;2023-02-13T07:50:09;96872.97;;;0.74;100.00
57801;BME280;43627;42.728;23.256;2023-02-13T07:52:35;96891.09;;;0.96;100.00
57801;BME280;43627;42.728;23.256;2023-02-13T07:55:05;96888.31;;;0.93;100.00
57801;BME280;43627;42.728;23.256;2023-02-13T07:57:32;96839.59;;;0.55;100.00
57801;BME280;43627;42.728;23.256;2023-02-13T07:59:59;96894.81;;;0.92;100.00
57801;BME280;43627;42.728;23.256;2023-02-13T08:02:26;96886.97;;;0.83;100.00
57801;BME280;43627;42.728;23.256;2023-02-13T08:04:52;96890.16;;;0.89;100.00
57801;BME280;43627;42.728;23.256;2023-02-13T08:07:19;96860.97;;;0.68;100.00
57801;BME280;43627;42.728;23.256;2023-02-13T08:09:46;96907.31;;;0.84;100.00
57801;BME280;43627;42.728;23.256;2023-02-13T08:12:33;96860.19;;;0.67;100.00
57801;BME280;43627;42.728;23.256;2023-02-13T08:15:01;96861.44;;;0.73;100.00
57801;BME280;43627;42.728;23.256;2023-02-13T08:17:28;96901.53;;;0.82;100.00
57801;BME280;43627;42.728;23.256;2023-02-13T08:19:55;96904.50;;;0.77;100.00
57801;BME280;43627;42.728;23.256;2023-02-13T08:22:21;96879.19;;;0.78;100.00
57801;BME280;43627;42.728;23.256;2023-02-13T08:24:48;96861.66;;;0.84;100.00
57801;BME280;43627;42.728;23.256;2023-02-13T08:27:15;96894.63;;;1.00;100.00
57801;BME280;43627;42.728;23.256;2023-02-13T08:29:41;96883.03;;;1.16;100.00
57801;BME280;43627;42.728;23.256;2023-02-13T08:32:08;96894.56;;;1.35;100.00
57801;BME280;43627;42.728;23.256;2023-02-13T08:34:35;96886.78;;;1.30;100.00
57801;BME280;43627;42.728;23.256;2023-02-13T08:37:02;96889.09;;;1.32;100.00
57801;BME280;43627;42.728;23.256;2023-02-13T08:39:29;96887.69;;;1.38;100.00
57801;BME280;43627;42.728;23.256;2023-02-13T08:41:55;96887.75;;;1.41;100.00
57801;BME280;43627;42.728;23.256;2023-02-13T08:44:22;96892.22;;;1.53;100.00
57801;BME280;43627;42.728;23.256;2023-02-13T08:46:49;96858.28;;;1.45;100.00
57801;BME280;43627;42.728;23.256;2023-02-13T08:49:15;96871.19;;;1.59;100.00
57801;BME280;43627;42.728;23.256;2023-02-13T08:51:42;96878.56;;;1.62;100.00
57801;BME280;43627;42.728;23.256;2023-02-13T08:54:09;96885.59;;;1.70;100.00
57801;BME280;43627;42.728;23.256;2023-02-13T08:56:35;96884.22;;;1.80;100.00
57801;BME280;43627;42.728;23.256;2023-02-13T08:59:02;96869.47;;;1.93;100.00
57801;BME280;43627;42.728;23.256;2023-02-13T09:01:29;96854.66;;;2.03;100.00
57801;BME280;43627;42.728;23.256;2023-02-13T09:03:56;96881.44;;;2.18;100.00
57801;BME280;43627;42.728;23.256;2023-02-13T09:06:22;96886.00;;;2.41;100.00
57801;BME280;43627;42.728;23.256;2023-02-13T09:08:52;96894.47;;;2.16;100.00
57801;BME280;43627;42.728;23.256;2023-02-13T09:11:18;96847.66;;;1.98;100.00
57801;BME280;43627;42.728;23.256;2023-02-13T09:13:51;96875.75;;;2.23;100.00
57801;BME280;43627;42.728;23.256;2023-02-13T09:16:18;96883.31;;;2.18;100.00
57801;BME280;43627;42.728;23.256;2023-02-13T09:18:46;96855.19;;;2.12;100.00
57801;BME280;43627;42.728;23.256;2023-02-13T09:21:14;96871.03;;;2.43;100.00
57801;BME280;43627;42.728;23.256;2023-02-13T09:23:40;96865.88;;;2.57;100.00
57801;BME280;43627;42.728;23.256;2023-02-13T09:26:09;96880.19;;;2.65;100.00
57801;BME280;43627;42.728;23.256;2023-02-13T09:28:37;96883.94;;;2.57;100.00
57801;BME280;43627;42.728;23.256;2023-02-13T09:31:08;96881.72;;;2.63;100.00
57801;BME280;43627;42.728;23.256;2023-02-13T09:33:36;96883.94;;;2.57;100.00
57801;BME280;43627;42.728;23.256;2023-02-13T09:36:08;96873.38;;;2.45;100.00
57801;BME280;43627;42.728;23.256;2023-02-13T09:38:35;96877.00;;;2.29;100.00
57801;BME280;43627;42.728;23.256;2023-02-13T09:41:06;96875.44;;;2.28;100.00
57801;BME280;43627;42.728;23.256;2023-02-13T09:43:42;96866.16;;;2.26;100.00
57801;BME280;43627;42.728;23.256;2023-02-13T09:46:16;96869.19;;;2.47;100.00
57801;BME280;43627;42.728;23.256;2023-02-13T09:48:46;96866.19;;;2.82;100.00
57801;BME280;43627;42.728;23.256;2023-02-13T09:51:17;96858.84;;;2.79;100.00
57801;BME280;43627;42.728;23.256;2023-02-13T09:53:53;96830.00;;;2.50;100.00
57801;BME280;43627;42.728;23.256;2023-02-13T09:56:32;96857.03;;;2.57;100.00
57801;BME280;43627;42.728;23.256;2023-02-13T09:59:21;96847.16;;;2.68;100.00
57801;BME280;43627;42.728;23.256;2023-02-13T10:01:54;96833.47;;;2.50;100.00
57801;BME280;43627;42.728;23.256;2023-02-13T10:09:38;96829.88;;;3.33;98.87
57801;BME280;43627;42.728;23.256;2023-02-13T10:17:52;96815.94;;;3.68;89.36
57801;BME280;43627;42.728;23.256;2023-02-13T10:23:20;96805.09;;;3.61;92.24
57801;BME280;43627;42.728;23.256;2023-02-13T10:25:58;96785.47;;;3.23;87.77
57801;BME280;43627;42.728;23.256;2023-02-13T10:28:37;96772.50;;;3.36;89.78
57801;BME280;43627;42.728;23.256;2023-02-13T10:31:09;96761.41;;;3.04;88.20
57801;BME280;43627;42.728;23.256;2023-02-13T10:33:49;96788.38;;;3.44;93.02
57801;BME280;43627;42.728;23.256;2023-02-13T10:36:26;96787.13;;;3.76;90.20
57801;BME280;43627;42.728;23.256;2023-02-13T10:41:49;96739.69;;;3.75;87.95
57801;BME280;43627;42.728;23.256;2023-02-13T10:58:14;96756.56;;;4.88;79.81
57801;BME280;43627;42.728;23.256;2023-02-13T11:00:55;96732.28;;;5.03;75.11
57801;BME280;43627;42.728;23.256;2023-02-13T11:03:26;96750.78;;;4.97;73.90
57801;BME280;43627;42.728;23.256;2023-02-13T11:05:54;96738.81;;;5.02;73.31
57801;BME280;43627;42.728;23.256;2023-02-13T11:08:39;96735.72;;;4.96;74.63
57801;BME280;43627;42.728;23.256;2023-02-13T11:11:34;96730.81;;;5.55;72.87
57801;BME280;43627;42.728;23.256;2023-02-13T11:16:58;96714.19;;;5.74;65.13
57801;BME280;43627;42.728;23.256;2023-02-13T11:19:36;96711.84;;;5.87;61.20
57801;BME280;43627;42.728;23.256;2023-02-13T11:22:11;96701.84;;;5.98;59.74
57801;BME280;43627;42.728;23.256;2023-02-13T11:24:50;96700.28;;;5.80;58.73
57801;BME280;43627;42.728;23.256;2023-02-13T11:27:23;96692.13;;;6.05;57.97
57801;BME280;43627;42.728;23.256;2023-02-13T11:30:00;96673.22;;;5.72;56.50
57801;BME280;43627;42.728;23.256;2023-02-13T11:32:32;96692.53;;;5.53;58.57
57801;BME280;43627;42.728;23.256;2023-02-13T11:35:29;96675.56;;;5.60;60.11
57801;BME280;43627;42.728;23.256;2023-02-13T11:38:22;96666.66;;;5.63;56.93
57801;BME280;43627;42.728;23.256;2023-02-13T11:41:09;96629.94;;;5.30;56.48
57801;BME280;43627;42.728;23.256;2023-02-13T11:43:45;96646.16;;;5.58;55.84
57801;BME280;43627;42.728;23.256;2023-02-13T11:46:21;96649.22;;;5.67;56.00
57801;BME280;43627;42.728;23.256;2023-02-13T11:48:57;96599.78;;;5.49;52.97
57801;BME280;43627;42.728;23.256;2023-02-13T11:51:40;96651.19;;;5.70;52.99
57801;BME280;43627;42.728;23.256;2023-02-13T11:54:29;96650.81;;;5.61;53.42
57801;BME280;43627;42.728;23.256;2023-02-13T11:57:02;96629.13;;;5.83;53.60
57801;BME280;43627;42.728;23.256;2023-02-13T11:59:38;96638.03;;;5.90;53.51
57801;BME280;43627;42.728;23.256;2023-02-13T12:02:13;96639.16;;;6.04;53.42
57801;BME280;43627;42.728;23.256;2023-02-13T12:04:41;96620.97;;;6.08;52.43
57801;BME280;43627;42.728;23.256;2023-02-13T12:15:36;96597.00;;;5.88;51.16
57801;BME280;43627;42.728;23.256;2023-02-13T12:20:37;96619.63;;;6.44;50.81
57801;BME280;43627;42.728;23.256;2023-02-13T12:23:13;96627.19;;;6.81;49.84
57801;BME280;43627;42.728;23.256;2023-02-13T12:29:03;96621.81;;;6.78;49.29
57801;BME280;43627;42.728;23.256;2023-02-13T12:40:34;96602.63;;;7.06;47.25
57801;BME280;43627;42.728;23.256;2023-02-13T12:45:52;96555.25;;;6.70;47.96
57801;BME280;43627;42.728;23.256;2023-02-13T12:57:23;96585.09;;;7.18;48.42
57801;BME280;43627;42.728;23.256;2023-02-13T13:02:37;96580.53;;;7.11;48.51
57801;BME280;43627;42.728;23.256;2023-02-13T13:08:55;96570.53;;;7.01;48.58
57801;BME280;43627;42.728;23.256;2023-02-13T13:22:33;96548.44;;;7.03;48.92
57801;BME280;43627;42.728;23.256;2023-02-13T13:25:39;96554.09;;;7.19;48.40
57801;BME280;43627;42.728;23.256;2023-02-13T13:28:14;96532.00;;;7.21;48.87
57801;BME280;43627;42.728;23.256;2023-02-13T13:30:42;96490.81;;;6.88;48.88
57801;BME280;43627;42.728;23.256;2023-02-13T13:33:19;96554.94;;;7.54;48.06
57801;BME280;43627;42.728;23.256;2023-02-13T13:47:44;96555.66;;;7.20;48.80
57801;BME280;43627;42.728;23.256;2023-02-13T13:50:25;96515.88;;;7.03;48.97
57801;BME280;43627;42.728;23.256;2023-02-13T13:53:13;96546.34;;;7.21;48.75
57801;BME280;43627;42.728;23.256;2023-02-13T13:58:46;96517.75;;;7.09;48.87
57801;BME280;43627;42.728;23.256;2023-02-13T14:01:28;96544.31;;;7.29;49.29
57801;BME280;43627;42.728;23.256;2023-02-13T14:04:09;96538.56;;;7.23;48.89
57801;BME280;43627;42.728;23.256;2023-02-13T14:14:51;96523.72;;;6.90;50.24
57801;BME280;43627;42.728;23.256;2023-02-13T14:20:27;96531.41;;;6.99;49.71
57801;BME280;43627;42.728;23.256;2023-02-13T14:23:06;96468.38;;;6.36;50.22
57801;BME280;43627;42.728;23.256;2023-02-13T14:25:33;96441.03;;;6.12;50.05
57801;BME280;43627;42.728;23.256;2023-02-13T14:28:04;96512.00;;;6.52;50.49
57801;BME280;43627;42.728;23.256;2023-02-13T14:30:34;96453.34;;;6.24;50.76
57801;BME280;43627;42.728;23.256;2023-02-13T14:33:04;96470.38;;;6.24;50.58
57801;BME280;43627;42.728;23.256;2023-02-13T14:35:34;96521.16;;;6.69;50.86
57801;BME280;43627;42.728;23.256;2023-02-13T14:38:05;96507.34;;;6.52;50.47
57801;BME280;43627;42.728;23.256;2023-02-13T14:40:50;96498.09;;;6.46;50.41
57801;BME280;43627;42.728;23.256;2023-02-13T14:51:32;96498.19;;;6.32;50.69
57801;BME280;43627;42.728;23.256;2023-02-13T14:56:32;96515.13;;;6.43;50.80
57801;BME280;43627;42.728;23.256;2023-02-13T14:59:17;96519.78;;;6.43;51.22
57801;BME280;43627;42.728;23.256;2023-02-13T15:01:48;96511.38;;;6.23;51.25
57801;BME280;43627;42.728;23.256;2023-02-13T15:07:29;96515.34;;;6.04;52.22
57801;BME280;43627;42.728;23.256;2023-02-13T15:10:03;96516.09;;;6.12;51.84
57801;BME280;43627;42.728;23.256;2023-02-13T15:12:36;96517.47;;;6.45;51.00
57801;BME280;43627;42.728;23.256;2023-02-13T15:15:22;96470.63;;;8.83;46.45
57801;BME280;43627;42.728;23.256;2023-02-13T15:17:59;96495.97;;;9.23;43.27
57801;BME280;43627;42.728;23.256;2023-02-13T15:20:32;96517.09;;;7.39;47.65
57801;BME280;43627;42.728;23.256;2023-02-13T15:23:00;96518.25;;;6.45;50.16
57801;BME280;43627;42.728;23.256;2023-02-13T15:25:35;96517.28;;;6.07;50.96
57801;BME280;43627;42.728;23.256;2023-02-13T15:28:04;96518.88;;;5.87;51.91
57801;BME280;43627;42.728;23.256;2023-02-13T15:30:34;96518.53;;;5.78;52.44
57801;BME280;43627;42.728;23.256;2023-02-13T15:33:19;96490.38;;;5.57;52.07
57801;BME280;43627;42.728;23.256;2023-02-13T15:35:56;96508.59;;;5.50;52.93
57801;BME280;43627;42.728;23.256;2023-02-13T15:38:32;96520.25;;;5.22;53.78
57801;BME280;43627;42.728;23.256;2023-02-13T15:41:05;96516.41;;;4.94;54.57
57801;BME280;43627;42.728;23.256;2023-02-13T15:43:35;96493.59;;;4.63;55.15
57801;BME280;43627;42.728;23.256;2023-02-13T15:46:20;96490.91;;;4.49;55.94
57801;BME280;43627;42.728;23.256;2023-02-13T15:48:53;96476.19;;;4.11;56.43
57801;BME280;43627;42.728;23.256;2023-02-13T15:51:27;96511.72;;;4.34;56.93